• Join FlightAware (Why Join?)
  • Login
  • US Flag 
05:23AM EST


 

Airport Tracker/Info


-or-


 

Live Flight TrackerFlight Track Log ✈ DAL268 ✈ 04-May-2013 ✈ KATL - KJFK

Flight Track Log - Related Links

Times and Time Zones

All times are in EDT time to prevent confusion due to time zone crossing. See the DAL268 flight status page for this flight to view local times or setup timezone preferences in your user account.

Time Position Orientation Groundspeed Altitude Reporting Facility
EDT Latitude Longitude Course Direction KTS MPH feet Rate Location/Type
06:47PM 33.6333 -84.3333 64° Northeast 231 266 2,800  Level Atlanta TRACON
06:48PM 33.6333 -84.2667 90° East 236 272 6,300 2,880 Climbing Atlanta TRACON
06:49PM 33.7145 -84.0199 101° East  Level FlightAware Approximate
06:49PM 33.6333 -84.1833 90° East 258 297 8,600  Level Atlanta TRACON
06:50PM 33.6922 -83.8859 101° East  Level FlightAware Approximate
06:50PM 33.6336 -84.0911 90° East 277 319 10,500  Level Atlanta Center
06:51PM 33.6698 -83.7519 101° East  Level FlightAware Approximate
06:51PM 33.6378 -83.9864 87° East 289 333 12,000  Level Atlanta Center
06:52PM 33.6558 -83.6192 64° Northeast  Level FlightAware Approximate
06:52PM 33.6458 -83.8867 84° East 327 376 13,300  Level Atlanta Center
06:53PM 33.6542 -83.7617 85° East 354 407 14,900 1,620 Climbing Atlanta Center
06:54PM 33.6642 -83.6344 85° East 373 429 16,600 1,920 Climbing Atlanta Center
06:55PM 33.7117 -83.5144 65° Northeast 378 435 18,800 1,620 Climbing Atlanta Center
06:56PM 33.7633 -83.3917 63° Northeast 401 461 19,900 1,320 Climbing Atlanta Center
06:57PM 33.8128 -83.2661 65° Northeast 413 475 21,500 1,440 Climbing Atlanta Center
06:58PM 33.8597 -83.1408 66° East 413 475 22,800 1,260 Climbing Atlanta Center
06:59PM 33.8858 -83.0028 77° East 413 475 24,100 960 Climbing Atlanta Center
07:00PM 33.9011 -82.8425 83° East 424 488 24,800 840 Climbing Atlanta Center
07:01PM 33.9164 -82.6919 83° East 441 507 25,800 900 Climbing Atlanta Center
07:02PM 33.9292 -82.5417 84° East 446 513 26,700 900 Climbing Atlanta Center
07:03PM 33.9419 -82.3911 84° East 453 521 27,700 780 Climbing Atlanta Center
07:04PM 33.9586 -82.2531 82° East 458 527 28,300 660 Climbing Atlanta Center
07:05PM 34.0192 -82.1164 62° Northeast 453 521 29,100 780 Climbing Atlanta Center
07:06PM 34.0817 -81.9797 61° Northeast 453 521 29,900 660 Climbing Atlanta Center
07:07PM 34.1481 -81.8425 60° Northeast 460 529 30,500 600 Climbing Atlanta Center
07:08PM 34.2125 -81.7053 60° Northeast 466 536 31,200 840 Climbing Atlanta Center
07:09PM 34.2767 -81.5678 61° Northeast 466 536 32,200 600 Climbing Atlanta Center
07:10PM 34.3406 -81.4325 60° Northeast 466 536 32,500 360 Climbing Atlanta Center
07:11PM 34.4103 -81.2792 61° Northeast 466 536 33,000 240 Climbing Atlanta Center
07:12PM 34.4719 -81.1461 61° Northeast 460 529 33,000  Level Atlanta Center
07:13PM 34.5353 -81.0106 60° Northeast 462 532 33,000  Level Atlanta Center
07:14PM 34.5908 -80.8922 60° Northeast 455 524 33,000  Level Atlanta Center
07:15PM 34.6519 -80.7511 62° Northeast 455 524 33,000  Level Atlanta Center
07:16PM 34.7150 -80.6172 60° Northeast 455 524 33,000  Level Atlanta Center
07:18PM 34.8139 -80.3933 62° Northeast 460 529 33,000  Level Washington Center
07:19PM 34.8756 -80.2628 60° Northeast 448 516 33,000  Level Washington Center
07:20PM 34.9375 -80.1169 63° Northeast 443 510 33,000  Level Washington Center
07:21PM 34.9939 -80.0008 59° Northeast 443 510 33,000  Level Washington Center
07:22PM 35.0511 -79.8644 63° Northeast 443 510 33,000  Level Washington Center
07:23PM 35.1142 -79.7308 60° Northeast 448 516 33,000  Level Washington Center
07:24PM 35.1753 -79.5917 62° Northeast 448 516 33,000  Level Washington Center
07:25PM 35.2361 -79.4547 61° Northeast 448 516 33,000  Level Washington Center
07:26PM 35.2947 -79.3200 62° Northeast 448 516 33,000  Level Washington Center
07:27PM 35.3553 -79.1803 62° Northeast 448 516 33,000  Level Washington Center
07:28PM 35.4133 -79.0478 62° Northeast 443 510 33,000  Level Washington Center
07:29PM 35.4717 -78.9128 62° Northeast 443 510 33,000  Level Washington Center
07:30PM 35.5294 -78.7797 62° Northeast 443 510 33,000  Level Washington Center
07:31PM 35.5939 -78.6214 63° Northeast 449 517 33,000  Level Washington Center
07:32PM 35.6683 -78.4914 55° Northeast 449 517 33,000  Level Washington Center
07:33PM 35.7564 -78.3794 46° Northeast 449 517 33,000  Level Washington Center
07:34PM 35.8422 -78.2747 45° Northeast 444 511 33,000  Level Washington Center
07:35PM 35.9322 -78.1675 44° Northeast 439 505 33,000  Level Washington Center
07:36PM 36.0222 -78.0575 45° Northeast 439 505 33,000  Level Washington Center
07:37PM 36.1119 -77.9472 45° Northeast 450 518 33,000  Level Washington Center
07:38PM 36.2019 -77.8367 45° Northeast 450 518 33,000  Level Washington Center
07:39PM 36.2914 -77.7258 45° Northeast 450 518 33,000  Level Washington Center
07:40PM 36.3808 -77.6197 44° Northeast 444 511 33,000  Level Washington Center
07:41PM 36.4556 -77.5211 47° Northeast 444 511 33,000  Level Washington Center
07:42PM 36.5469 -77.4094 44° Northeast 444 511 33,000  Level Washington Center
07:43PM 36.6322 -77.3003 46° Northeast 444 511 33,000  Level Washington Center
07:44PM 36.7150 -77.1853 48° Northeast 444 511 33,000  Level Washington Center
07:45PM 36.7419 -77.0383 77° East 422 486 33,000  Level Washington Center
07:46PM 36.7644 -76.8856 80° East 427 491 33,000  Level Washington Center
07:47PM 36.7808 -76.7303 82° East 438 504 33,000  Level Washington Center
07:48PM 36.7986 -76.5803 82° East 443 510 33,000  Level Washington Center
07:49PM 36.8375 -76.4328 72° East 443 510 33,000  Level Washington Center
07:50PM 36.9050 -76.2803 61° Northeast 443 510 33,000  Level Washington Center
07:51PM 36.9767 -76.1561 54° Northeast 443 510 33,000  Level Washington Center
07:52PM 37.0586 -76.0369 49° Northeast 448 516 33,000  Level Washington Center
07:53PM 37.1361 -75.9122 52° Northeast 448 516 33,000  Level Washington Center
07:54PM 37.2114 -75.7875 53° Northeast 448 516 33,000  Level Washington Center
07:55PM 37.2931 -75.6703 49° Northeast 448 516 33,000  Level Washington Center
07:56PM 37.4056 -75.6153 21° North 426 490 33,000  Level Washington Center
07:57PM 37.5203 -75.5708 17° North 421 484 33,000  Level Washington Center
07:58PM 37.6350 -75.5264 17° North 421 484 33,000  Level Washington Center
07:59PM 37.7517 -75.4789 18° North 426 490 33,000  Level Washington Center
08:00PM 37.8622 -75.4286 20° North 426 490 33,000  Level Washington Center
08:01PM 37.9769 -75.3811 18° North 426 490 33,000  Level Washington Center
08:02PM 38.0956 -75.3331 18° North 426 490 33,000  Level Washington Center
08:03PM 38.2103 -75.2825 19° North 426 490 33,000  Level Washington Center
08:04PM 38.3019 -75.2425 19° North 426 490 33,000  Level Washington Center
08:05PM 38.4267 -75.1861 20° North 426 490 33,000  Level Washington Center
08:06PM 38.5433 -75.1297 21° North 431 496 33,000  Level Washington Center
08:07PM 38.6619 -75.0786 19° North 431 496 33,000  Level Washington Center
08:08PM 38.7722 -75.0111 26° Northeast 437 503 33,000 -60 Level Washington Center
08:09PM 38.8822 -74.9408 26° Northeast 437 503 32,900  Descending Washington Center
08:10PM 38.9839 -74.8733 27° Northeast 423 487 33,000 -60 Climbing Washington Center
08:11PM 39.0858 -74.8056 27° Northeast 412 474 32,800 -960 Descending Washington Center
08:12PM 39.1747 -74.7189 37° Northeast 401 461 31,100 -2,340 Descending Washington Center
08:13PM 39.2697 -74.6131 41° Northeast 401 461 28,200 -2,520 Descending Washington Center
08:14PM 39.3503 -74.5233 41° Northeast 394 453 26,000 -1,860 Descending Washington Center
08:15PM 39.4286 -74.4361 41° Northeast 383 441 24,600 -1,260 Descending Washington Center
08:16PM 39.4567 -74.3203 73° East 331 381 23,600 -960 Descending Washington Center
08:17PM 39.3869 -74.2356 137° Southeast 262 302 22,700 -960 Descending Washington Center
08:18PM 39.2894 -74.2831 201° Southwest 233 268 21,700 -1,020 Descending Washington Center
08:19PM 39.2092 -74.3594 216° Southwest 285 328 20,700 -900 Descending Washington Center
08:20PM 39.1642 -74.4644 241° Southwest 306 352 19,900 -780 Descending Washington Center
08:21PM 39.1839 -74.5422 288° West 267 307 19,400 -780 Descending New York Center
08:22PM 39.2731 -74.5603 351° North 211 243 18,600 -780 Descending New York Center
08:23PM 39.3461 -74.4944 35° Northeast 223 257 17,900 -300 Descending New York Center
08:24PM 39.4169 -74.4256 37° Northeast 268 308 18,000  Climbing New York Center
08:25PM 39.4881 -74.3567 37° Northeast 304 350 18,000  Level New York Center
08:26PM 39.5608 -74.2903 35° Northeast 314 361 18,000  Level New York Center
08:27PM 39.6211 -74.2258 39° Northeast 319 367 18,000 -240 Level New York Center
08:28PM 39.6878 -74.1536 40° Northeast 314 361 17,600 -840 Descending New York Center
08:29PM 39.7589 -74.0733 41° Northeast 304 350 16,400 -1,380 Descending New York Center
08:30PM 39.8211 -74.0089 38° Northeast 292 336 14,900 -1,200 Descending New York Center
08:31PM 39.8831 -73.9603 31° Northeast 287 330 14,000 -600 Descending New York Center
08:32PM 39.9508 -73.9119 29° Northeast 281 323 13,800 -360 Descending New York Center
08:33PM 40.0189 -73.8633 29° Northeast 260 299 13,300 -540 Descending New York Center
08:34PM 40.0817 -73.8581 North 228 262 12,800 -600 Descending New York Center
08:35PM 40.1067 -73.9381 292° West 182 209 12,200 -600 Descending New York Center
08:36PM 40.0531 -73.9897 216° Southwest 138 159 11,700 -600 Descending New York Center
08:37PM 40.0211 -73.9367 128° Southeast 90 104 11,100 -360 Descending New York Center
08:38PM 40.0667 -73.8683 49° Northeast 158 182 11,000 -600 Descending New York Center
08:39PM 40.1100 -73.8078 47° Northeast 207 238 9,900 -1,320 Descending New York Center
08:40PM 40.1492 -73.7472 50° Northeast 222 255 8,500 -1,500 Descending New York Center
08:40PM 40.2000 -73.7500 358° North 240 276 7,100 -1,500 Descending New York TRACON
08:41PM 40.2333 -73.8333 298° West 239 275 5,700 -1,140 Descending New York TRACON
08:42PM 40.2667 -73.9000 303° West 236 272 4,900 -900 Descending New York TRACON
08:43PM 40.3000 -73.9667 303° West 222 255 3,900 -960 Descending New York TRACON
08:44PM 40.3500 -74.0167 323° Northwest 214 246 3,000 -480 Descending New York TRACON
08:45PM 40.4000 -74.0000 14° North 170 196 3,000  Level New York TRACON
08:46PM 40.4500 -73.9833 14° North 173 199 3,000  Level New York TRACON
08:47PM 40.5000 -73.9833 360° North 175 201 3,000 -180 Level New York TRACON
08:48PM 40.5333 -73.9500 37° Northeast 166 191 2,700 -480 Descending New York TRACON
08:49PM 40.5667 -73.9333 21° North 162 186 2,100 -660 Descending New York TRACON
08:50PM 40.6000 -73.9000 37° Northeast 158 182 1,400 -660 Descending New York TRACON
08:51PM 40.6500 -73.8667 27° Northeast 146 168 800 -420 Descending New York TRACON
08:52PM 40.6667 -73.8333 57° Northeast 144 166 600 -240 Descending New York TRACON